sensor_id;sensor_type;location;lat;lon;timestamp;pressure;altitude;pressure_sealevel;temperature;humidity
37860;BME280;23698;52.014;5.190;2023-04-23T00:01:14;100637.06;;;9.87;100.00
37860;BME280;23698;52.014;5.190;2023-04-23T00:04:02;100630.00;;;9.86;100.00
37860;BME280;23698;52.014;5.190;2023-04-23T00:06:52;100628.28;;;9.99;100.00
37860;BME280;23698;52.014;5.190;2023-04-23T00:09:40;100627.94;;;10.09;100.00
37860;BME280;23698;52.014;5.190;2023-04-23T00:12:28;100620.59;;;10.03;100.00
37860;BME280;23698;52.014;5.190;2023-04-23T00:15:16;100606.59;;;9.78;100.00
37860;BME280;23698;52.014;5.190;2023-04-23T00:18:05;100614.56;;;10.08;100.00
37860;BME280;23698;52.014;5.190;2023-04-23T00:20:51;100613.50;;;9.80;100.00
37860;BME280;23698;52.014;5.190;2023-04-23T00:23:40;100605.31;;;9.95;100.00
37860;BME280;23698;52.014;5.190;2023-04-23T00:26:26;100608.47;;;9.77;100.00
37860;BME280;23698;52.014;5.190;2023-04-23T00:29:12;100600.53;;;9.76;100.00
37860;BME280;23698;52.014;5.190;2023-04-23T00:31:59;100599.34;;;9.85;100.00
37860;BME280;23698;52.014;5.190;2023-04-23T00:34:46;100597.78;;;9.91;100.00
37860;BME280;23698;52.014;5.190;2023-04-23T00:37:33;100596.72;;;9.92;100.00
37860;BME280;23698;52.014;5.190;2023-04-23T00:40:20;100596.72;;;9.92;100.00
37860;BME280;23698;52.014;5.190;2023-04-23T00:43:07;100587.38;;;9.73;100.00
37860;BME280;23698;52.014;5.190;2023-04-23T00:45:54;100571.38;;;9.78;100.00
37860;BME280;23698;52.014;5.190;2023-04-23T00:48:41;100577.44;;;9.80;100.00
37860;BME280;23698;52.014;5.190;2023-04-23T00:51:28;100578.72;;;9.62;100.00
37860;BME280;23698;52.014;5.190;2023-04-23T00:54:16;100573.25;;;9.99;100.00
37860;BME280;23698;52.014;5.190;2023-04-23T00:57:04;100570.03;;;9.89;100.00
37860;BME280;23698;52.014;5.190;2023-04-23T00:59:52;100569.31;;;9.58;100.00
37860;BME280;23698;52.014;5.190;2023-04-23T01:02:41;100564.31;;;9.77;100.00
37860;BME280;23698;52.014;5.190;2023-04-23T01:05:29;100559.00;;;9.47;100.00
37860;BME280;23698;52.014;5.190;2023-04-23T01:08:16;100557.78;;;9.50;100.00
37860;BME280;23698;52.014;5.190;2023-04-23T01:11:04;100559.97;;;9.61;100.00
37860;BME280;23698;52.014;5.190;2023-04-23T01:13:52;100549.53;;;9.79;100.00
37860;BME280;23698;52.014;5.190;2023-04-23T01:16:38;100551.22;;;9.59;100.00
37860;BME280;23698;52.014;5.190;2023-04-23T01:19:25;100544.97;;;9.80;100.00
37860;BME280;23698;52.014;5.190;2023-04-23T01:22:14;100544.56;;;9.83;100.00
37860;BME280;23698;52.014;5.190;2023-04-23T01:25:01;100546.44;;;9.61;100.00
37860;BME280;23698;52.014;5.190;2023-04-23T01:27:48;100544.31;;;9.56;100.00
37860;BME280;23698;52.014;5.190;2023-04-23T01:30:36;100536.06;;;9.43;100.00
37860;BME280;23698;52.014;5.190;2023-04-23T01:33:23;100539.28;;;9.53;100.00
37860;BME280;23698;52.014;5.190;2023-04-23T01:36:11;100532.19;;;9.31;100.00
37860;BME280;23698;52.014;5.190;2023-04-23T01:38:58;100535.25;;;9.86;100.00
37860;BME280;23698;52.014;5.190;2023-04-23T01:41:46;100530.69;;;9.64;100.00
37860;BME280;23698;52.014;5.190;2023-04-23T01:44:33;100531.75;;;9.49;100.00
37860;BME280;23698;52.014;5.190;2023-04-23T01:47:20;100531.81;;;9.55;100.00
37860;BME280;23698;52.014;5.190;2023-04-23T01:50:07;100538.72;;;9.58;100.00
37860;BME280;23698;52.014;5.190;2023-04-23T01:52:53;100532.91;;;9.82;100.00
37860;BME280;23698;52.014;5.190;2023-04-23T01:55:42;100524.03;;;9.67;100.00
37860;BME280;23698;52.014;5.190;2023-04-23T01:58:30;100523.25;;;9.52;100.00
37860;BME280;23698;52.014;5.190;2023-04-23T02:01:17;100521.84;;;9.56;100.00
37860;BME280;23698;52.014;5.190;2023-04-23T02:04:03;100516.53;;;9.69;100.00
37860;BME280;23698;52.014;5.190;2023-04-23T02:06:50;100524.00;;;9.89;100.00
37860;BME280;23698;52.014;5.190;2023-04-23T02:09:36;100513.34;;;9.80;100.00
37860;BME280;23698;52.014;5.190;2023-04-23T02:12:25;100512.69;;;9.35;100.00
37860;BME280;23698;52.014;5.190;2023-04-23T02:15:12;100517.63;;;9.53;100.00
37860;BME280;23698;52.014;5.190;2023-04-23T02:17:59;100510.31;;;9.47;100.00
37860;BME280;23698;52.014;5.190;2023-04-23T02:20:46;100510.63;;;9.80;100.00
37860;BME280;23698;52.014;5.190;2023-04-23T02:23:32;100501.84;;;9.78;100.00
37860;BME280;23698;52.014;5.190;2023-04-23T02:26:18;100511.22;;;9.54;100.00
37860;BME280;23698;52.014;5.190;2023-04-23T02:29:08;100503.00;;;9.69;100.00
37860;BME280;23698;52.014;5.190;2023-04-23T02:31:54;100494.78;;;9.56;100.00
37860;BME280;23698;52.014;5.190;2023-04-23T02:34:41;100494.63;;;9.86;100.00
37860;BME280;23698;52.014;5.190;2023-04-23T02:37:28;100498.91;;;9.73;100.00
37860;BME280;23698;52.014;5.190;2023-04-23T02:40:14;100492.84;;;9.50;100.00
37860;BME280;23698;52.014;5.190;2023-04-23T02:43:00;100498.09;;;9.79;100.00
37860;BME280;23698;52.014;5.190;2023-04-23T02:45:48;100495.72;;;9.91;100.00
37860;BME280;23698;52.014;5.190;2023-04-23T02:48:36;100493.94;;;10.05;100.00
37860;BME280;23698;52.014;5.190;2023-04-23T02:51:22;100492.78;;;9.64;100.00
37860;BME280;23698;52.014;5.190;2023-04-23T02:54:08;100494.50;;;9.72;100.00
37860;BME280;23698;52.014;5.190;2023-04-23T02:56:55;100505.00;;;9.60;100.00
37860;BME280;23698;52.014;5.190;2023-04-23T02:59:42;100504.03;;;9.90;100.00
37860;BME280;23698;52.014;5.190;2023-04-23T03:02:29;100502.84;;;9.99;100.00
37860;BME280;23698;52.014;5.190;2023-04-23T03:05:16;100499.00;;;10.15;100.00
37860;BME280;23698;52.014;5.190;2023-04-23T03:08:02;100493.44;;;9.95;100.00
37860;BME280;23698;52.014;5.190;2023-04-23T03:10:49;100496.75;;;9.69;100.00
37860;BME280;23698;52.014;5.190;2023-04-23T03:13:35;100489.00;;;9.87;100.00
37860;BME280;23698;52.014;5.190;2023-04-23T03:16:21;100487.91;;;10.03;100.00
37860;BME280;23698;52.014;5.190;2023-04-23T03:19:09;100478.88;;;10.24;100.00
37860;BME280;23698;52.014;5.190;2023-04-23T03:21:56;100486.91;;;10.11;100.00
37860;BME280;23698;52.014;5.190;2023-04-23T03:24:43;100488.84;;;9.95;100.00
37860;BME280;23698;52.014;5.190;2023-04-23T03:27:29;100483.06;;;9.98;100.00
37860;BME280;23698;52.014;5.190;2023-04-23T03:30:15;100494.72;;;9.99;100.00
37860;BME280;23698;52.014;5.190;2023-04-23T03:33:02;100487.28;;;9.79;100.00
37860;BME280;23698;52.014;5.190;2023-04-23T03:35:49;100486.94;;;9.89;100.00
37860;BME280;23698;52.014;5.190;2023-04-23T03:38:40;100476.91;;;9.83;100.00
37860;BME280;23698;52.014;5.190;2023-04-23T03:41:27;100486.16;;;9.95;100.00
37860;BME280;23698;52.014;5.190;2023-04-23T03:44:13;100486.91;;;9.61;100.00
37860;BME280;23698;52.014;5.190;2023-04-23T03:47:02;100481.16;;;9.71;100.00
37860;BME280;23698;52.014;5.190;2023-04-23T03:49:50;100481.41;;;9.76;100.00
37860;BME280;23698;52.014;5.190;2023-04-23T03:52:39;100477.22;;;10.30;100.00
37860;BME280;23698;52.014;5.190;2023-04-23T03:55:30;100470.09;;;10.22;100.00
37860;BME280;23698;52.014;5.190;2023-04-23T03:58:17;100468.72;;;10.05;100.00
37860;BME280;23698;52.014;5.190;2023-04-23T04:01:05;100466.41;;;9.73;100.00
37860;BME280;23698;52.014;5.190;2023-04-23T04:03:51;100471.03;;;9.79;100.00
37860;BME280;23698;52.014;5.190;2023-04-23T04:06:40;100468.47;;;9.71;100.00
37860;BME280;23698;52.014;5.190;2023-04-23T04:09:28;100458.06;;;9.75;100.00
37860;BME280;23698;52.014;5.190;2023-04-23T04:12:18;100459.50;;;9.71;100.00
37860;BME280;23698;52.014;5.190;2023-04-23T04:15:05;100467.31;;;9.59;100.00
37860;BME280;23698;52.014;5.190;2023-04-23T04:17:52;100464.53;;;9.74;100.00
37860;BME280;23698;52.014;5.190;2023-04-23T04:20:38;100467.31;;;9.59;100.00
37860;BME280;23698;52.014;5.190;2023-04-23T04:23:28;100461.09;;;9.87;100.00
37860;BME280;23698;52.014;5.190;2023-04-23T04:26:16;100470.94;;;10.23;100.00
37860;BME280;23698;52.014;5.190;2023-04-23T04:29:03;100465.88;;;10.13;100.00
37860;BME280;23698;52.014;5.190;2023-04-23T04:31:49;100468.56;;;10.13;100.00
37860;BME280;23698;52.014;5.190;2023-04-23T04:34:36;100471.22;;;10.06;100.00
37860;BME280;23698;52.014;5.190;2023-04-23T04:37:23;100470.16;;;10.00;100.00
37860;BME280;23698;52.014;5.190;2023-04-23T04:40:11;100469.56;;;10.05;100.00
37860;BME280;23698;52.014;5.190;2023-04-23T04:43:00;100471.41;;;9.98;100.00
37860;BME280;23698;52.014;5.190;2023-04-23T04:45:46;100476.88;;;10.11;100.00
37860;BME280;23698;52.014;5.190;2023-04-23T04:48:33;100477.75;;;10.12;100.00
37860;BME280;23698;52.014;5.190;2023-04-23T04:51:19;100469.22;;;9.87;100.00
37860;BME280;23698;52.014;5.190;2023-04-23T04:54:06;100465.97;;;9.98;100.00
37860;BME280;23698;52.014;5.190;2023-04-23T04:56:52;100468.00;;;9.89;100.00
37860;BME280;23698;52.014;5.190;2023-04-23T04:59:39;100464.00;;;9.85;100.00
37860;BME280;23698;52.014;5.190;2023-04-23T05:02:26;100462.78;;;9.66;100.00
37860;BME280;23698;52.014;5.190;2023-04-23T05:05:13;100471.88;;;9.80;100.00
37860;BME280;23698;52.014;5.190;2023-04-23T05:07:59;100465.53;;;9.94;100.00
37860;BME280;23698;52.014;5.190;2023-04-23T05:10:46;100462.28;;;10.06;100.00
37860;BME280;23698;52.014;5.190;2023-04-23T05:13:34;100454.41;;;9.82;100.00
37860;BME280;23698;52.014;5.190;2023-04-23T05:16:22;100460.50;;;9.91;100.00
37860;BME280;23698;52.014;5.190;2023-04-23T05:19:08;100460.00;;;9.81;100.00
37860;BME280;23698;52.014;5.190;2023-04-23T05:21:55;100465.53;;;9.94;100.00
37860;BME280;23698;52.014;5.190;2023-04-23T05:24:41;100460.06;;;10.16;100.00
37860;BME280;23698;52.014;5.190;2023-04-23T05:27:28;100461.91;;;9.80;100.00
37860;BME280;23698;52.014;5.190;2023-04-23T05:30:14;100465.19;;;10.32;100.00
37860;BME280;23698;52.014;5.190;2023-04-23T05:33:02;100475.09;;;10.25;100.00
37860;BME280;23698;52.014;5.190;2023-04-23T05:35:48;100473.47;;;10.31;100.00
37860;BME280;23698;52.014;5.190;2023-04-23T05:38:35;100478.41;;;9.92;100.00
37860;BME280;23698;52.014;5.190;2023-04-23T05:41:21;100482.19;;;9.91;100.00
37860;BME280;23698;52.014;5.190;2023-04-23T05:44:07;100477.44;;;10.28;100.00
37860;BME280;23698;52.014;5.190;2023-04-23T05:46:54;100466.28;;;10.45;100.00
37860;BME280;23698;52.014;5.190;2023-04-23T05:49:41;100463.00;;;10.49;100.00
37860;BME280;23698;52.014;5.190;2023-04-23T05:52:28;100461.28;;;10.42;100.00
37860;BME280;23698;52.014;5.190;2023-04-23T05:55:17;100465.41;;;10.37;100.00
37860;BME280;23698;52.014;5.190;2023-04-23T05:58:04;100467.63;;;10.55;100.00
37860;BME280;23698;52.014;5.190;2023-04-23T06:00:51;100468.13;;;10.37;100.00
37860;BME280;23698;52.014;5.190;2023-04-23T06:03:37;100464.25;;;10.47;100.00
37860;BME280;23698;52.014;5.190;2023-04-23T06:06:27;100468.00;;;10.52;100.00
37860;BME280;23698;52.014;5.190;2023-04-23T06:09:13;100466.13;;;10.53;100.00
37860;BME280;23698;52.014;5.190;2023-04-23T06:12:00;100466.03;;;10.81;100.00
37860;BME280;23698;52.014;5.190;2023-04-23T06:14:47;100463.75;;;10.85;100.00
37860;BME280;23698;52.014;5.190;2023-04-23T06:17:33;100466.50;;;10.91;100.00
37860;BME280;23698;52.014;5.190;2023-04-23T06:20:20;100466.72;;;10.96;100.00
37860;BME280;23698;52.014;5.190;2023-04-23T06:23:08;100465.59;;;10.71;100.00
37860;BME280;23698;52.014;5.190;2023-04-23T06:25:54;100457.34;;;10.92;100.00
37860;BME280;23698;52.014;5.190;2023-04-23T06:28:41;100456.94;;;11.02;100.00
37860;BME280;23698;52.014;5.190;2023-04-23T06:31:43;100454.88;;;11.11;100.00
37860;BME280;23698;52.014;5.190;2023-04-23T06:34:30;100452.19;;;11.24;100.00
37860;BME280;23698;52.014;5.190;2023-04-23T06:37:16;100439.50;;;11.45;100.00
37860;BME280;23698;52.014;5.190;2023-04-23T06:40:05;100435.75;;;11.59;100.00
37860;BME280;23698;52.014;5.190;2023-04-23T06:42:52;100432.59;;;11.82;100.00
37860;BME280;23698;52.014;5.190;2023-04-23T06:45:56;100428.22;;;12.15;100.00
37860;BME280;23698;52.014;5.190;2023-04-23T06:48:42;100423.59;;;12.22;100.00
37860;BME280;23698;52.014;5.190;2023-04-23T06:51:28;100422.47;;;12.50;100.00
37860;BME280;23698;52.014;5.190;2023-04-23T06:54:15;100423.38;;;12.75;100.00
37860;BME280;23698;52.014;5.190;2023-04-23T06:57:03;100429.31;;;12.65;100.00
37860;BME280;23698;52.014;5.190;2023-04-23T06:59:50;100427.59;;;13.10;100.00
37860;BME280;23698;52.014;5.190;2023-04-23T07:02:39;100413.88;;;13.30;100.00
37860;BME280;23698;52.014;5.190;2023-04-23T07:05:26;100420.38;;;13.35;100.00
37860;BME280;23698;52.014;5.190;2023-04-23T07:08:12;100415.38;;;13.26;100.00
37860;BME280;23698;52.014;5.190;2023-04-23T07:10:58;100419.25;;;13.43;100.00
37860;BME280;23698;52.014;5.190;2023-04-23T07:13:46;100425.63;;;13.23;100.00
37860;BME280;23698;52.014;5.190;2023-04-23T07:16:33;100423.88;;;13.68;100.00
37860;BME280;23698;52.014;5.190;2023-04-23T07:19:19;100422.22;;;13.67;100.00
37860;BME280;23698;52.014;5.190;2023-04-23T07:22:05;100407.13;;;13.64;100.00
37860;BME280;23698;52.014;5.190;2023-04-23T07:24:52;100409.78;;;13.96;100.00
37860;BME280;23698;52.014;5.190;2023-04-23T07:27:38;100403.97;;;14.11;100.00
37860;BME280;23698;52.014;5.190;2023-04-23T07:30:26;100403.16;;;14.47;100.00
37860;BME280;23698;52.014;5.190;2023-04-23T07:33:12;100406.56;;;14.24;100.00
37860;BME280;23698;52.014;5.190;2023-04-23T07:35:58;100404.06;;;15.08;100.00
37860;BME280;23698;52.014;5.190;2023-04-23T07:38:45;100406.72;;;14.97;100.00
37860;BME280;23698;52.014;5.190;2023-04-23T07:41:31;100400.03;;;14.44;100.00
37860;BME280;23698;52.014;5.190;2023-04-23T07:44:19;100404.50;;;14.57;100.00
37860;BME280;23698;52.014;5.190;2023-04-23T07:47:07;100407.03;;;14.88;100.00
37860;BME280;23698;52.014;5.190;2023-04-23T07:49:56;100401.03;;;14.98;100.00
37860;BME280;23698;52.014;5.190;2023-04-23T07:52:42;100399.19;;;15.10;100.00
37860;BME280;23698;52.014;5.190;2023-04-23T07:55:28;100414.78;;;15.34;100.00
37860;BME280;23698;52.014;5.190;2023-04-23T07:58:15;100402.47;;;15.55;100.00
37860;BME280;23698;52.014;5.190;2023-04-23T08:01:02;100408.16;;;15.29;100.00
37860;BME280;23698;52.014;5.190;2023-04-23T08:03:49;100415.69;;;15.70;100.00
37860;BME280;23698;52.014;5.190;2023-04-23T08:06:36;100399.03;;;15.47;100.00
37860;BME280;23698;52.014;5.190;2023-04-23T08:09:23;100398.34;;;15.64;100.00
37860;BME280;23698;52.014;5.190;2023-04-23T08:12:10;100405.22;;;15.43;100.00
37860;BME280;23698;52.014;5.190;2023-04-23T08:14:57;100398.44;;;15.03;100.00
37860;BME280;23698;52.014;5.190;2023-04-23T08:17:50;100407.00;;;15.49;100.00
37860;BME280;23698;52.014;5.190;2023-04-23T08:20:39;100408.56;;;16.28;100.00
37860;BME280;23698;52.014;5.190;2023-04-23T08:23:26;100406.81;;;15.86;100.00
37860;BME280;23698;52.014;5.190;2023-04-23T08:26:12;100400.66;;;16.02;100.00
37860;BME280;23698;52.014;5.190;2023-04-23T08:28:59;100404.19;;;15.91;100.00
37860;BME280;23698;52.014;5.190;2023-04-23T08:31:47;100406.59;;;16.11;100.00
37860;BME280;23698;52.014;5.190;2023-04-23T08:34:34;100395.72;;;16.40;100.00
37860;BME280;23698;52.014;5.190;2023-04-23T08:37:22;100394.53;;;16.36;100.00
37860;BME280;23698;52.014;5.190;2023-04-23T08:40:16;100403.25;;;16.61;100.00
37860;BME280;23698;52.014;5.190;2023-04-23T08:43:05;100410.75;;;16.66;100.00
37860;BME280;23698;52.014;5.190;2023-04-23T08:45:58;100410.81;;;16.95;100.00
37860;BME280;23698;52.014;5.190;2023-04-23T08:48:51;100405.84;;;17.09;100.00
37860;BME280;23698;52.014;5.190;2023-04-23T08:51:42;100422.00;;;17.39;100.00
37860;BME280;23698;52.014;5.190;2023-04-23T08:54:33;100427.50;;;16.70;100.00
37860;BME280;23698;52.014;5.190;2023-04-23T08:57:23;100433.47;;;17.53;100.00
37860;BME280;23698;52.014;5.190;2023-04-23T09:00:15;100433.53;;;17.41;100.00
37860;BME280;23698;52.014;5.190;2023-04-23T09:03:04;100431.72;;;17.30;100.00
37860;BME280;23698;52.014;5.190;2023-04-23T09:05:55;100435.56;;;17.80;100.00
37860;BME280;23698;52.014;5.190;2023-04-23T09:09:28;100438.72;;;18.05;100.00
37860;BME280;23698;52.014;5.190;2023-04-23T09:12:16;100446.09;;;17.37;100.00
37860;BME280;23698;52.014;5.190;2023-04-23T09:15:12;100443.69;;;17.74;100.00
37860;BME280;23698;52.014;5.190;2023-04-23T09:18:04;100445.91;;;17.44;100.00
37860;BME280;23698;52.014;5.190;2023-04-23T09:20:53;100444.81;;;17.28;100.00
37860;BME280;23698;52.014;5.190;2023-04-23T09:23:39;100439.66;;;17.31;100.00
37860;BME280;23698;52.014;5.190;2023-04-23T09:26:26;100429.50;;;17.78;100.00
37860;BME280;23698;52.014;5.190;2023-04-23T09:29:14;100434.63;;;18.25;100.00
37860;BME280;23698;52.014;5.190;2023-04-23T09:32:06;100437.56;;;17.84;100.00
37860;BME280;23698;52.014;5.190;2023-04-23T09:34:55;100438.09;;;17.52;100.00
37860;BME280;23698;52.014;5.190;2023-04-23T09:37:43;100432.22;;;17.61;100.00
37860;BME280;23698;52.014;5.190;2023-04-23T09:40:32;100430.34;;;17.95;100.00
37860;BME280;23698;52.014;5.190;2023-04-23T09:43:20;100425.00;;;18.44;100.00
37860;BME280;23698;52.014;5.190;2023-04-23T09:46:09;100435.38;;;18.20;100.00
37860;BME280;23698;52.014;5.190;2023-04-23T09:48:57;100437.34;;;17.86;100.00
37860;BME280;23698;52.014;5.190;2023-04-23T09:51:47;100432.06;;;17.84;100.00
37860;BME280;23698;52.014;5.190;2023-04-23T09:54:34;100436.25;;;18.04;100.00
37860;BME280;23698;52.014;5.190;2023-04-23T09:57:23;100431.69;;;18.54;100.00
37860;BME280;23698;52.014;5.190;2023-04-23T10:00:13;100433.22;;;18.44;100.00
37860;BME280;23698;52.014;5.190;2023-04-23T10:03:03;100429.94;;;18.03;100.00
37860;BME280;23698;52.014;5.190;2023-04-23T10:05:53;100423.44;;;17.76;100.00
37860;BME280;23698;52.014;5.190;2023-04-23T10:08:46;100425.88;;;18.28;100.00
37860;BME280;23698;52.014;5.190;2023-04-23T10:11:33;100424.81;;;18.73;100.00
37860;BME280;23698;52.014;5.190;2023-04-23T10:14:20;100426.38;;;19.13;100.00
37860;BME280;23698;52.014;5.190;2023-04-23T10:17:08;100421.22;;;18.73;100.00
37860;BME280;23698;52.014;5.190;2023-04-23T10:19:57;100418.72;;;18.71;100.00
37860;BME280;23698;52.014;5.190;2023-04-23T10:22:45;100424.59;;;18.80;100.00
37860;BME280;23698;52.014;5.190;2023-04-23T10:25:32;100419.91;;;19.57;100.00
37860;BME280;23698;52.014;5.190;2023-04-23T10:28:21;100430.59;;;19.53;100.00
37860;BME280;23698;52.014;5.190;2023-04-23T10:31:13;100424.22;;;19.15;100.00
37860;BME280;23698;52.014;5.190;2023-04-23T10:34:01;100416.91;;;19.58;100.00
37860;BME280;23698;52.014;5.190;2023-04-23T10:36:52;100412.97;;;19.17;100.00
37860;BME280;23698;52.014;5.190;2023-04-23T10:39:41;100404.25;;;18.98;100.00
37860;BME280;23698;52.014;5.190;2023-04-23T10:42:29;100410.72;;;18.42;100.00
37860;BME280;23698;52.014;5.190;2023-04-23T10:45:16;100399.81;;;18.75;100.00
37860;BME280;23698;52.014;5.190;2023-04-23T10:48:06;100396.19;;;19.18;100.00
37860;BME280;23698;52.014;5.190;2023-04-23T10:50:58;100394.19;;;19.09;100.00
37860;BME280;23698;52.014;5.190;2023-04-23T10:54:08;100394.94;;;18.77;100.00
37860;BME280;23698;52.014;5.190;2023-04-23T10:56:58;100394.97;;;19.04;100.00
37860;BME280;23698;52.014;5.190;2023-04-23T10:59:51;100390.72;;;18.91;100.00
37860;BME280;23698;52.014;5.190;2023-04-23T11:02:42;100379.31;;;19.69;100.00
37860;BME280;23698;52.014;5.190;2023-04-23T11:05:28;100381.13;;;19.53;100.00
37860;BME280;23698;52.014;5.190;2023-04-23T11:08:15;100366.88;;;18.97;100.00
37860;BME280;23698;52.014;5.190;2023-04-23T11:11:07;100371.25;;;18.93;100.00
37860;BME280;23698;52.014;5.190;2023-04-23T11:13:54;100372.38;;;18.97;100.00
37860;BME280;23698;52.014;5.190;2023-04-23T11:16:40;100367.00;;;18.58;100.00
37860;BME280;23698;52.014;5.190;2023-04-23T11:19:27;100362.00;;;18.55;100.00
37860;BME280;23698;52.014;5.190;2023-04-23T11:22:15;100360.84;;;19.27;100.00
37860;BME280;23698;52.014;5.190;2023-04-23T11:25:04;100356.63;;;19.47;100.00
37860;BME280;23698;52.014;5.190;2023-04-23T11:27:58;100343.19;;;19.18;100.00
37860;BME280;23698;52.014;5.190;2023-04-23T11:30:49;100342.94;;;19.57;100.00
37860;BME280;23698;52.014;5.190;2023-04-23T11:33:37;100340.34;;;19.77;100.00
37860;BME280;23698;52.014;5.190;2023-04-23T11:36:23;100327.00;;;19.96;100.00
37860;BME280;23698;52.014;5.190;2023-04-23T11:39:11;100329.34;;;19.08;100.00
37860;BME280;23698;52.014;5.190;2023-04-23T11:41:58;100320.81;;;19.04;100.00
37860;BME280;23698;52.014;5.190;2023-04-23T11:44:51;100321.72;;;19.47;100.00
37860;BME280;23698;52.014;5.190;2023-04-23T11:47:38;100312.88;;;19.40;100.00
37860;BME280;23698;52.014;5.190;2023-04-23T11:50:26;100303.63;;;19.56;100.00
37860;BME280;23698;52.014;5.190;2023-04-23T11:53:12;100299.94;;;19.03;100.00
37860;BME280;23698;52.014;5.190;2023-04-23T11:56:18;100296.84;;;18.94;100.00
37860;BME280;23698;52.014;5.190;2023-04-23T11:59:07;100292.94;;;18.90;100.00
37860;BME280;23698;52.014;5.190;2023-04-23T12:02:00;100285.66;;;18.52;100.00
37860;BME280;23698;52.014;5.190;2023-04-23T12:04:47;100286.16;;;18.98;100.00
37860;BME280;23698;52.014;5.190;2023-04-23T12:07:33;100286.88;;;19.20;100.00
37860;BME280;23698;52.014;5.190;2023-04-23T12:10:20;100283.34;;;19.68;100.00
37860;BME280;23698;52.014;5.190;2023-04-23T12:13:12;100282.34;;;19.04;100.00
37860;BME280;23698;52.014;5.190;2023-04-23T12:16:02;100281.59;;;19.94;100.00
37860;BME280;23698;52.014;5.190;2023-04-23T12:18:52;100277.69;;;19.42;100.00
37860;BME280;23698;52.014;5.190;2023-04-23T12:21:49;100273.34;;;19.51;100.00
37860;BME280;23698;52.014;5.190;2023-04-23T12:24:45;100268.78;;;19.24;100.00
37860;BME280;23698;52.014;5.190;2023-04-23T12:27:38;100267.56;;;19.48;100.00
37860;BME280;23698;52.014;5.190;2023-04-23T12:30:27;100255.91;;;19.78;100.00
37860;BME280;23698;52.014;5.190;2023-04-23T12:33:14;100254.75;;;20.32;100.00
37860;BME280;23698;52.014;5.190;2023-04-23T12:36:03;100251.00;;;19.80;100.00
37860;BME280;23698;52.014;5.190;2023-04-23T12:39:24;100246.63;;;19.41;100.00
37860;BME280;23698;52.014;5.190;2023-04-23T12:42:11;100248.13;;;19.22;100.00
37860;BME280;23698;52.014;5.190;2023-04-23T12:45:04;100236.88;;;20.34;100.00
37860;BME280;23698;52.014;5.190;2023-04-23T12:47:52;100237.63;;;19.56;100.00
37860;BME280;23698;52.014;5.190;2023-04-23T12:50:39;100241.44;;;19.45;100.00
37860;BME280;23698;52.014;5.190;2023-04-23T12:53:27;100232.34;;;19.44;100.00
37860;BME280;23698;52.014;5.190;2023-04-23T12:56:14;100217.72;;;18.91;100.00
37860;BME280;23698;52.014;5.190;2023-04-23T12:59:00;100227.56;;;19.24;100.00
37860;BME280;23698;52.014;5.190;2023-04-23T13:01:50;100225.06;;;18.58;100.00
37860;BME280;23698;52.014;5.190;2023-04-23T13:04:37;100220.16;;;18.60;100.00
37860;BME280;23698;52.014;5.190;2023-04-23T13:07:23;100208.09;;;18.34;100.00
37860;BME280;23698;52.014;5.190;2023-04-23T13:10:11;100204.59;;;18.39;100.00
37860;BME280;23698;52.014;5.190;2023-04-23T13:12:58;100198.84;;;18.73;100.00
37860;BME280;23698;52.014;5.190;2023-04-23T13:15:44;100196.81;;;18.90;100.00
37860;BME280;23698;52.014;5.190;2023-04-23T13:18:31;100199.69;;;18.73;100.00
37860;BME280;23698;52.014;5.190;2023-04-23T13:21:18;100189.03;;;18.49;100.00
37860;BME280;23698;52.014;5.190;2023-04-23T13:24:04;100181.28;;;19.06;100.00
37860;BME280;23698;52.014;5.190;2023-04-23T13:26:52;100177.56;;;18.85;100.00
37860;BME280;23698;52.014;5.190;2023-04-23T13:29:38;100175.97;;;18.62;100.00
37860;BME280;23698;52.014;5.190;2023-04-23T13:32:25;100170.31;;;18.14;100.00
37860;BME280;23698;52.014;5.190;2023-04-23T13:35:16;100168.69;;;17.91;100.00
37860;BME280;23698;52.014;5.190;2023-04-23T13:38:02;100159.41;;;18.19;100.00
37860;BME280;23698;52.014;5.190;2023-04-23T13:40:49;100159.97;;;18.21;100.00
37860;BME280;23698;52.014;5.190;2023-04-23T13:43:37;100157.19;;;18.81;100.00
37860;BME280;23698;52.014;5.190;2023-04-23T13:46:24;100151.63;;;19.13;100.00
37860;BME280;23698;52.014;5.190;2023-04-23T13:49:11;100151.19;;;18.52;100.00
37860;BME280;23698;52.014;5.190;2023-04-23T13:51:58;100150.31;;;19.16;100.00
37860;BME280;23698;52.014;5.190;2023-04-23T13:54:48;100153.38;;;18.82;100.00
37860;BME280;23698;52.014;5.190;2023-04-23T13:57:37;100141.78;;;18.80;100.00
37860;BME280;23698;52.014;5.190;2023-04-23T14:00:27;100145.47;;;18.91;100.00
37860;BME280;23698;52.014;5.190;2023-04-23T14:03:14;100144.59;;;18.53;100.00
37860;BME280;23698;52.014;5.190;2023-04-23T14:06:02;100136.19;;;18.32;100.00
37860;BME280;23698;52.014;5.190;2023-04-23T14:08:49;100133.19;;;19.03;100.00
37860;BME280;23698;52.014;5.190;2023-04-23T14:11:35;100130.69;;;18.59;100.00
37860;BME280;23698;52.014;5.190;2023-04-23T14:14:24;100118.53;;;18.88;100.00
37860;BME280;23698;52.014;5.190;2023-04-23T14:17:12;100124.94;;;18.66;100.00
37860;BME280;23698;52.014;5.190;2023-04-23T14:20:00;100123.28;;;18.65;100.00
37860;BME280;23698;52.014;5.190;2023-04-23T14:22:49;100111.78;;;18.68;100.00
37860;BME280;23698;52.014;5.190;2023-04-23T14:25:40;100104.25;;;18.85;100.00
37860;BME280;23698;52.014;5.190;2023-04-23T14:28:28;100105.25;;;19.22;100.00
37860;BME280;23698;52.014;5.190;2023-04-23T14:31:18;100104.00;;;19.45;100.00